Time;durP1;ratioP1;P1;durP2;ratioP2;P2;SDS_P1;SDS_P2;PMS_P1;PMS_P2;Temp;Humidity;BMP_temperature;BMP_pressure;BME280_temperature;BME280_humidity;BME280_pressure;Samples;Min_cycle;Max_cycle;Signal;HPM_P1;HPM_P2
2024/01/05 00:01:00;;;;;;;;;;;;;;;22.00;38.87;100009.66;5139120;28;19974;-50
2024/01/05 00:03:26;;;;;;;;;;;;;;;;;;5134747;28;19911;-49
2024/01/05 00:05:51;;;;;;;;;;;;;;;21.96;38.70;100000.31;5131590;28;19967;-49
2024/01/05 00:08:16;;;;;;;;;;;;;;;21.93;39.02;100001.56;5133118;28;20354;-52
2024/01/05 00:10:41;;;;;;;;;;;;;;;21.92;38.75;99999.91;5132987;28;19912;-49
2024/01/05 00:13:06;;;;;;;;;;;;;;;21.91;39.00;99989.28;5137534;28;19934;-52
2024/01/05 00:15:32;;;;;;;;;;;;;;;21.89;38.79;99975.16;5137143;28;19918;-49
2024/01/05 00:17:57;;;;;;;;;;;;;;;21.87;38.94;99972.63;5137308;28;19993;-52
2024/01/05 00:20:22;;;;;;;;;;;;;;;21.85;39.01;99968.50;5137131;28;19971;-48
2024/01/05 00:22:47;;;;;;;;;;;;;;;21.84;38.86;99967.66;5135761;28;19915;-53
2024/01/05 00:25:14;;;;;;;;;;;;;;;21.81;39.01;99954.53;5132880;27;19927;-47
2024/01/05 00:27:39;;;;;;;;;;;;;;;21.80;39.16;99946.66;5138913;27;19911;-48
2024/01/05 00:30:05;;;;;;;;;;;;;;;21.79;39.34;99947.66;5139597;27;19912;-49
2024/01/05 00:32:30;;;;;;;;;;;;;;;21.79;39.20;99936.84;5142900;27;19919;-51
2024/01/05 00:34:55;;;;;;;;;;;;;;;21.77;39.05;99944.34;5137201;27;19927;-47
2024/01/05 00:37:20;;;;;;;;;;;;;;;21.75;39.34;99941.03;5139280;27;19916;-48
2024/01/05 00:39:46;;;;;;;;;;;;;;;21.74;38.97;99931.25;5133717;27;19920;-52
2024/01/05 00:42:11;;;;;;;;;;;;;;;21.71;39.29;99927.94;5138391;27;20284;-47
2024/01/05 00:44:36;;;;;;;;;;;;;;;21.69;39.26;99931.88;5143829;27;19929;-49
2024/01/05 00:47:01;;;;;;;;;;;;;;;21.68;39.23;99922.09;5145769;27;19918;-50
2024/01/05 00:49:26;;;;;;;;;;;;;;;21.66;39.24;99929.59;5138537;27;19920;-50
2024/01/05 00:51:51;;;;;;;;;;;;;;;21.66;39.11;99919.63;5140906;27;19915;-51
2024/01/05 00:54:17;;;;;;;;;;;;;;;21.64;39.21;99912.75;5146581;27;19912;-50
2024/01/05 00:56:42;;;;;;;;;;;;;;;21.63;39.29;99916.50;5136157;27;19915;-50
2024/01/05 00:59:07;;;;;;;;;;;;;;;21.61;39.41;99913.16;5138761;27;19916;-50
2024/01/05 01:01:32;;;;;;;;;;;;;;;21.59;39.44;99910.69;5128691;27;19922;-51
2024/01/05 01:03:57;;;;;;;;;;;;;;;21.57;39.42;99899.22;5141635;27;19925;-48
2024/01/05 01:06:23;;;;;;;;;;;;;;;21.55;39.46;99893.22;5139630;27;19916;-50
2024/01/05 01:08:48;;;;;;;;;;;;;;;21.54;39.45;99891.56;5145845;27;19911;-49
2024/01/05 01:11:14;;;;;;;;;;;;;;;21.53;39.63;99879.03;5141163;27;19982;-51
2024/01/05 01:13:39;;;;;;;;;;;;;;;21.43;39.45;99865.97;5135038;27;19919;-49
2024/01/05 01:16:04;;;;;;;;;;;;;;;21.50;39.37;99874.09;5145006;27;19916;-49
2024/01/05 01:18:29;;;;;;;;;;;;;;;21.49;39.64;99871.56;5143823;27;19915;-51
2024/01/05 01:20:55;;;;;;;;;;;;;;;21.48;39.33;99867.22;5137173;27;19939;-47
2024/01/05 01:23:20;;;;;;;;;;;;;;;21.46;39.59;99867.44;5138899;27;19918;-50
2024/01/05 01:25:45;;;;;;;;;;;;;;;21.44;39.57;99858.69;5140955;27;19919;-49
2024/01/05 01:28:10;;;;;;;;;;;;;;;21.42;39.56;99853.50;5139087;27;19912;-49
2024/01/05 01:30:35;;;;;;;;;;;;;;;21.41;39.57;99851.84;5136593;27;20366;-52
2024/01/05 01:33:00;;;;;;;;;;;;;;;21.40;39.72;99850.16;5143206;27;20385;-50
2024/01/05 01:35:26;;;;;;;;;;;;;;;21.40;39.53;99849.31;5135099;27;19911;-48
2024/01/05 01:37:51;;;;;;;;;;;;;;;21.38;39.82;99840.59;5141093;27;19912;-48
2024/01/05 01:40:16;;;;;;;;;;;;;;;21.36;39.51;99837.25;5145494;27;20021;-47
2024/01/05 01:42:45;;;;;;;;;;;;;;;21.34;39.53;99840.19;5140229;27;19923;-51
2024/01/05 01:45:10;;;;;;;;;;;;;;;21.31;39.49;99828.94;5137503;27;19918;-50
2024/01/05 01:47:35;;;;;;;;;;;;;;;21.30;39.76;99828.09;5135575;27;19911;-49
2024/01/05 01:50:01;;;;;;;;;;;;;;;21.29;39.63;99829.16;5134905;27;19939;-49
2024/01/05 01:52:26;;;;;;;;;;;;;;;21.28;39.62;99834.75;5129961;27;20014;-46
2024/01/05 01:54:51;;;;;;;;;;;;;;;21.26;39.59;99826.84;5141615;27;19911;-48
2024/01/05 01:57:17;;;;;;;;;;;;;;;21.23;39.66;99822.69;5128500;27;19919;-46
2024/01/05 01:59:43;;;;;;;;;;;;;;;21.22;39.78;99826.44;5119511;27;19947;-46
2024/01/05 02:02:08;;;;;;;;;;;;;;;21.22;39.80;99825.63;5130729;27;19919;-49
2024/01/05 02:04:34;;;;;;;;;;;;;;;21.21;39.93;99826.66;5128662;27;19915;-51
2024/01/05 02:06:59;;;;;;;;;;;;;;;21.20;39.79;99822.31;5136286;27;19915;-48
2024/01/05 02:09:24;;;;;;;;;;;;;;;21.18;39.96;99814.38;5139796;27;19960;-48
2024/01/05 02:11:49;;;;;;;;;;;;;;;21.17;39.88;99811.91;5143106;27;19912;-49
2024/01/05 02:14:14;;;;;;;;;;;;;;;21.16;39.80;99810.25;5124774;27;20323;-47
2024/01/05 02:16:42;;;;;;;;;;;;;;;21.14;40.11;99796.94;5129209;27;19919;-48
2024/01/05 02:19:08;;;;;;;;;;;;;;;21.12;40.08;99799.03;5143281;27;19919;-48
2024/01/05 02:21:35;;;;;;;;;;;;;;;21.11;39.97;99794.66;5136547;27;19915;-46
2024/01/05 02:24:00;;;;;;;;;;;;;;;21.10;40.09;99784.88;5128935;27;20431;-48
2024/01/05 02:26:25;;;;;;;;;;;;;;;21.10;40.19;99787.56;5144900;27;19912;-48
2024/01/05 02:28:50;;;;;;;;;;;;;;;21.09;40.14;99779.69;5139812;27;20374;-46
2024/01/05 02:31:15;;;;;;;;;;;;;;;21.08;40.02;99776.16;5136789;27;19912;-46
2024/01/05 02:33:40;;;;;;;;;;;;;;;21.06;39.99;99780.94;5142312;27;19911;-46
2024/01/05 02:36:06;;;;;;;;;;;;;;;21.04;40.24;99761.41;5137113;27;19919;-45
2024/01/05 02:38:31;;;;;;;;;;;;;;;21.04;40.06;99763.28;5135393;27;19964;-47
2024/01/05 02:40:58;;;;;;;;;;;;;;;21.02;39.96;99765.34;5140153;27;19911;-47
2024/01/05 02:43:23;;;;;;;;;;;;;;;21.01;40.31;99764.53;5138072;27;19937;-46
2024/01/05 02:45:48;;;;;;;;;;;;;;;20.99;40.15;99750.41;5135132;27;19919;-46
2024/01/05 02:48:13;;;;;;;;;;;;;;;20.97;40.29;99757.88;5143041;27;20429;-48
2024/01/05 02:50:38;;;;;;;;;;;;;;;20.96;40.26;99751.63;5141038;27;19923;-45
2024/01/05 02:53:04;;;;;;;;;;;;;;;20.96;39.97;99745.41;5136555;27;19933;-47
2024/01/05 02:55:29;;;;;;;;;;;;;;;20.94;40.28;99751.03;5136156;27;19922;-53
2024/01/05 02:57:54;;;;;;;;;;;;;;;20.93;40.24;99738.53;5141318;27;19926;-47
2024/01/05 03:00:19;;;;;;;;;;;;;;;20.91;40.04;99729.00;5137375;27;19915;-51
2024/01/05 03:02:44;;;;;;;;;;;;;;;20.90;40.08;99732.75;5135171;27;19926;-51
2024/01/05 03:05:10;;;;;;;;;;;;;;;20.88;40.28;99726.72;5136992;27;19918;-49
2024/01/05 03:07:35;;;;;;;;;;;;;;;20.87;40.14;99723.19;5137715;27;19954;-48
2024/01/05 03:10:00;;;;;;;;;;;;;;;20.86;40.27;99726.94;5131500;27;19918;-49
2024/01/05 03:12:25;;;;;;;;;;;;;;;20.84;40.39;99717.38;5139773;27;19960;-49
2024/01/05 03:14:50;;;;;;;;;;;;;;;20.83;40.19;99711.13;5136295;27;19923;-50
2024/01/05 03:17:16;;;;;;;;;;;;;;;20.82;40.21;99712.19;5135582;27;19923;-50
2024/01/05 03:19:41;;;;;;;;;;;;;;;20.82;40.42;99711.34;5142259;27;20410;-51
2024/01/05 03:22:06;;;;;;;;;;;;;;;20.80;40.28;99708.84;5140225;27;19915;-51
2024/01/05 03:24:31;;;;;;;;;;;;;;;20.79;40.42;99704.50;5136448;27;19912;-49
2024/01/05 03:26:57;;;;;;;;;;;;;;;20.78;40.36;99705.53;5130571;27;19918;-50
2024/01/05 03:29:22;;;;;;;;;;;;;;;20.77;40.41;99690.34;5134459;27;19938;-50
2024/01/05 03:31:47;;;;;;;;;;;;;;;20.76;40.26;99694.09;5136996;27;20339;-50
2024/01/05 03:34:12;;;;;;;;;;;;;;;20.74;40.43;99681.88;5119407;28;19927;-48
2024/01/05 03:36:38;;;;;;;;;;;;;;;20.72;40.27;99682.88;5135009;28;19918;-49
2024/01/05 03:39:03;;;;;;;;;;;;;;;20.72;40.34;99679.34;5136440;28;19919;-49
2024/01/05 03:41:28;;;;;;;;;;;;;;;20.71;40.59;99675.00;5138794;28;19912;-50
2024/01/05 03:43:54;;;;;;;;;;;;;;;20.70;40.48;99667.94;5140220;28;19920;-50
2024/01/05 03:46:19;;;;;;;;;;;;;;;20.68;40.34;99665.44;5137192;27;20022;-49
2024/01/05 03:48:44;;;;;;;;;;;;;;;20.66;40.56;99658.59;5136479;28;19999;-49
2024/01/05 03:51:09;;;;;;;;;;;;;;;20.64;40.52;99660.66;5140179;28;19911;-49
2024/01/05 03:53:35;;;;;;;;;;;;;;;20.64;40.41;99655.25;5138642;28;19922;-48
2024/01/05 03:56:00;;;;;;;;;;;;;;;20.61;40.44;99651.13;5132425;28;19941;-50
2024/01/05 03:58:25;;;;;;;;;;;;;;;20.61;40.33;99648.44;5136707;28;19927;-48
2024/01/05 04:00:50;;;;;;;;;;;;;;;20.59;40.69;99639.69;5139314;27;19912;-48
2024/01/05 04:03:17;;;;;;;;;;;;;;;20.59;40.63;99636.16;5140595;27;20002;-46
2024/01/05 04:05:42;;;;;;;;;;;;;;;20.58;40.39;99631.81;5145866;27;19911;-51
2024/01/05 04:08:07;;;;;;;;;;;;;;;20.57;40.57;99635.56;5141599;27;19937;-50
2024/01/05 04:10:32;;;;;;;;;;;;;;;20.56;40.77;99631.19;5138530;27;19915;-46
2024/01/05 04:12:58;;;;;;;;;;;;;;;20.55;40.68;99624.94;5145955;27;19911;-48
2024/01/05 04:15:23;;;;;;;;;;;;;;;20.53;40.43;99621.66;5142855;27;19937;-48
2024/01/05 04:17:48;;;;;;;;;;;;;;;20.51;40.63;99618.31;5137429;27;19912;-47
2024/01/05 04:20:13;;;;;;;;;;;;;;;20.51;40.41;99615.59;5143959;27;19933;-49
2024/01/05 04:22:38;;;;;;;;;;;;;;;20.50;40.46;99613.13;5142166;27;19995;-48
2024/01/05 04:25:04;;;;;;;;;;;;;;;20.38;40.70;99596.72;5142003;27;19915;-49
2024/01/05 04:27:29;;;;;;;;;;;;;;;20.47;40.47;99604.41;5140411;27;19912;-50
2024/01/05 04:29:54;;;;;;;;;;;;;;;20.46;40.69;99601.88;5140836;27;20422;-49
2024/01/05 04:32:19;;;;;;;;;;;;;;;20.44;40.66;99602.09;5139409;27;19918;-48
2024/01/05 04:34:44;;;;;;;;;;;;;;;20.43;40.46;99600.47;5141740;27;19915;-50
2024/01/05 04:37:09;;;;;;;;;;;;;;;20.42;40.54;99601.47;5140105;27;19916;-50
2024/01/05 04:39:35;;;;;;;;;;;;;;;20.42;40.74;99600.66;5142514;27;19916;-48
2024/01/05 04:42:00;;;;;;;;;;;;;;;20.40;40.60;99598.16;5140333;27;19916;-52
2024/01/05 04:44:25;;;;;;;;;;;;;;;20.40;40.41;99602.75;5140801;27;20305;-51
2024/01/05 04:46:50;;;;;;;;;;;;;;;20.38;40.79;99596.72;5142298;27;19946;-49
2024/01/05 04:49:15;;;;;;;;;;;;;;;20.36;40.76;99586.13;5139974;27;19950;-50
2024/01/05 04:51:41;;;;;;;;;;;;;;;20.35;40.83;99589.88;5137228;27;20384;-49
2024/01/05 04:54:06;;;;;;;;;;;;;;;20.34;40.74;99574.69;5141364;27;19923;-50
2024/01/05 04:56:31;;;;;;;;;;;;;;;20.33;40.85;99574.91;5132843;27;19937;-49
2024/01/05 04:58:56;;;;;;;;;;;;;;;20.32;41.01;99571.38;5137876;27;19931;-49
2024/01/05 05:01:21;;;;;;;;;;;;;;;20.31;40.66;99566.22;5137959;27;19911;-49
2024/01/05 05:03:46;;;;;;;;;;;;;;;20.30;40.98;99569.94;5127949;27;19947;-46
2024/01/05 05:06:12;;;;;;;;;;;;;;;20.28;40.93;99562.06;5141071;27;19916;-52
2024/01/05 05:08:37;;;;;;;;;;;;;;;20.27;40.99;99564.97;5122878;27;19974;-49
2024/01/05 05:11:02;;;;;;;;;;;;;;;20.26;40.73;99556.03;5135685;27;19918;-48
2024/01/05 05:13:27;;;;;;;;;;;;;;;20.26;40.73;99557.91;5137954;27;19979;-47
2024/01/05 05:15:53;;;;;;;;;;;;;;;20.23;40.96;99553.75;5136912;27;19965;-47
2024/01/05 05:18:18;;;;;;;;;;;;;;;20.22;40.93;99555.63;5137178;27;20386;-47
2024/01/05 05:20:43;;;;;;;;;;;;;;;20.21;41.06;99550.44;5124176;27;19992;-46
2024/01/05 05:23:09;;;;;;;;;;;;;;;20.20;41.00;99554.19;5136892;27;19922;-48
2024/01/05 05:25:34;;;;;;;;;;;;;;;20.18;41.15;99561.66;5137625;27;19911;-49
2024/01/05 05:27:59;;;;;;;;;;;;;;;20.17;40.99;99560.81;5135994;27;19912;-50
2024/01/05 05:30:24;;;;;;;;;;;;;;;20.16;41.11;99561.84;5140482;27;19933;-51
2024/01/05 05:32:49;;;;;;;;;;;;;;;20.16;41.40;99553.75;5137741;27;19919;-48
2024/01/05 05:35:14;;;;;;;;;;;;;;;20.16;40.99;99555.63;5133832;27;19999;-50
2024/01/05 05:37:40;;;;;;;;;;;;;;;20.16;41.13;99544.84;5136099;27;19920;-49
2024/01/05 05:40:05;;;;;;;;;;;;;;;20.17;41.31;99549.19;5133928;27;20031;-49
2024/01/05 05:42:30;;;;;;;;;;;;;;;20.17;41.28;99546.50;5139584;27;19935;-48
2024/01/05 05:44:56;;;;;;;;;;;;;;;20.16;41.33;99544.84;5137098;27;19922;-46
2024/01/05 05:47:21;;;;;;;;;;;;;;;20.16;41.63;99540.28;5138151;27;19911;-48
2024/01/05 05:49:46;;;;;;;;;;;;;;;20.16;41.87;99537.56;5136153;27;19927;-50
2024/01/05 05:52:11;;;;;;;;;;;;;;;20.17;41.98;99539.22;5137446;27;19912;-46
2024/01/05 05:54:36;;;;;;;;;;;;;;;20.17;41.73;99536.53;5135569;27;19923;-48
2024/01/05 05:57:02;;;;;;;;;;;;;;;20.17;41.98;99531.13;5136417;27;19919;-47
2024/01/05 05:59:27;;;;;;;;;;;;;;;20.19;41.85;99536.34;5134816;27;19961;-47
2024/01/05 06:01:53;;;;;;;;;;;;;;;20.19;41.91;99529.06;5135984;27;20430;-49
2024/01/05 06:04:18;;;;;;;;;;;;;;;20.20;42.11;99525.31;5138785;27;20436;-50
2024/01/05 06:06:43;;;;;;;;;;;;;;;20.21;42.00;99531.53;5135447;27;19927;-47
2024/01/05 06:09:08;;;;;;;;;;;;;;;20.23;42.08;99521.38;5132763;27;19911;-45
2024/01/05 06:11:34;;;;;;;;;;;;;;;20.24;42.23;99528.44;5136681;27;20575;-47
2024/01/05 06:13:59;;;;;;;;;;;;;;;20.26;42.22;99525.50;5131697;27;19998;-48
2024/01/05 06:16:24;;;;;;;;;;;;;;;20.27;42.02;99530.72;5132986;27;19916;-45
2024/01/05 06:18:50;;;;;;;;;;;;;;;20.29;42.23;99517.81;5124536;27;19965;-49
2024/01/05 06:21:15;;;;;;;;;;;;;;;20.31;42.07;99528.44;5133214;27;19912;-46
2024/01/05 06:23:40;;;;;;;;;;;;;;;20.32;42.23;99527.38;5135112;27;20054;-51
2024/01/05 06:26:05;;;;;;;;;;;;;;;20.34;42.30;99527.97;5139366;27;19920;-51
2024/01/05 06:28:30;;;;;;;;;;;;;;;20.35;41.91;99525.09;5136171;27;19919;-51
2024/01/05 06:30:56;;;;;;;;;;;;;;;20.37;42.29;99523.00;5136488;27;19920;-50
2024/01/05 06:33:21;;;;;;;;;;;;;;;20.38;41.99;99524.66;5134880;27;20060;-47
2024/01/05 06:35:46;;;;;;;;;;;;;;;20.40;41.95;99525.28;5132337;27;19915;-48
2024/01/05 06:38:12;;;;;;;;;;;;;;;20.41;41.96;99516.13;5135298;27;19982;-49
2024/01/05 06:40:37;;;;;;;;;;;;;;;20.42;41.72;99517.78;5109650;27;19911;-49
2024/01/05 06:43:02;;;;;;;;;;;;;;;20.42;41.98;99514.25;5118644;27;19993;-49
2024/01/05 06:45:27;;;;;;;;;;;;;;;20.44;41.94;99512.19;5132786;27;19908;-50
2024/01/05 06:47:52;;;;;;;;;;;;;;;20.44;42.05;99523.81;5129570;27;19919;-49
2024/01/05 06:50:17;;;;;;;;;;;;;;;20.47;41.99;99525.25;5131606;27;19937;-50
2024/01/05 06:52:43;;;;;;;;;;;;;;;20.48;41.77;99526.97;5135308;27;19923;-51
2024/01/05 06:55:09;;;;;;;;;;;;;;;20.50;41.75;99521.34;5137583;27;19950;-51
2024/01/05 06:57:35;;;;;;;;;;;;;;;20.51;41.77;99521.09;5136289;27;19934;-48
2024/01/05 07:00:04;;;;;;;;;;;;;;;20.53;42.00;99516.34;5132877;27;19915;-51
2024/01/05 07:02:31;;;;;;;;;;;;;;;20.55;41.81;99518.81;5134724;27;21909;-50
2024/01/05 07:04:57;;;;;;;;;;;;;;;20.56;41.90;99517.78;5130892;27;19920;-47
2024/01/05 07:07:22;;;;;;;;;;;;;;;20.58;41.70;99518.41;5132658;27;19912;-51
2024/01/05 07:09:47;;;;;;;;;;;;;;;20.61;41.62;99523.38;5135640;27;19983;-50
2024/01/05 07:12:13;;;;;;;;;;;;;;;20.61;41.53;99518.81;5135525;27;19923;-52
2024/01/05 07:14:38;;;;;;;;;;;;;;;20.63;41.87;99518.59;5132594;27;19954;-51
2024/01/05 07:17:03;;;;;;;;;;;;;;;20.64;41.51;99507.56;5137188;27;19916;-52
2024/01/05 07:19:29;;;;;;;;;;;;;;;20.68;41.72;99513.38;5134868;27;19916;-50
2024/01/05 07:21:54;;;;;;;;;;;;;;;20.70;42.02;99508.59;5134795;27;19915;-58
2024/01/05 07:24:19;;;;;;;;;;;;;;;20.72;41.80;99512.72;5136618;28;20032;-59
2024/01/05 07:26:44;;;;;;;;;;;;;;;20.74;41.59;99509.81;5135637;27;19912;-59
2024/01/05 07:29:09;;;;;;;;;;;;;;;20.77;41.59;99508.53;5133542;27;19955;-58
2024/01/05 07:31:35;;;;;;;;;;;;;;;20.79;41.58;99510.00;5131916;27;19940;-56
2024/01/05 07:34:00;;;;;;;;;;;;;;;20.82;41.79;99516.84;5138334;27;19911;-53
2024/01/05 07:36:25;;;;;;;;;;;;;;;20.84;41.49;99514.75;5129723;28;19950;-55
2024/01/05 07:38:50;;;;;;;;;;;;;;;20.84;41.48;99512.88;5135223;28;19972;-54
2024/01/05 07:41:19;;;;;;;;;;;;;;;20.87;41.41;99511.63;5135667;28;19927;-52
2024/01/05 07:43:44;;;;;;;;;;;;;;;20.89;41.64;99517.63;5133792;28;19919;-52
2024/01/05 07:46:09;;;;;;;;;;;;;;;20.90;41.27;99512.03;5133819;28;19922;-45
2024/01/05 07:48:38;;;;;;;;;;;;;;;20.91;41.37;99500.19;5136249;28;20028;-45
2024/01/05 07:51:03;;;;;;;;;;;;;;;20.92;41.36;99509.09;5131155;28;19923;-46
2024/01/05 07:53:28;;;;;;;;;;;;;;;20.92;41.06;99515.34;5129024;28;19915;-47
2024/01/05 07:55:54;;;;;;;;;;;;;;;20.93;41.31;99511.59;5133595;28;19963;-49
2024/01/05 07:58:19;;;;;;;;;;;;;;;20.91;41.19;99510.97;5132027;28;19943;-48
2024/01/05 08:00:44;;;;;;;;;;;;;;;20.97;47.33;99506.59;5129842;28;19962;-48
2024/01/05 08:03:10;;;;;;;;;;;;;;;20.99;49.70;99506.38;5135030;28;20373;-49
2024/01/05 08:05:36;;;;;;;;;;;;;;;21.00;49.12;99508.03;5137828;28;19936;-47
2024/01/05 08:08:01;;;;;;;;;;;;;;;21.03;49.42;99505.72;5139541;28;19933;-47
2024/01/05 08:10:26;;;;;;;;;;;;;;;21.03;48.15;99511.13;5137985;28;19933;-46
2024/01/05 08:12:52;;;;;;;;;;;;;;;21.02;47.13;99512.16;5132162;28;20227;-49
2024/01/05 08:15:17;;;;;;;;;;;;;;;21.03;46.67;99496.81;5131211;28;20365;-48
2024/01/05 08:17:42;;;;;;;;;;;;;;;21.03;46.21;99499.50;5136638;28;19915;-48
2024/01/05 08:20:07;;;;;;;;;;;;;;;21.02;45.98;99497.81;5132738;28;20386;-46
2024/01/05 08:22:34;;;;;;;;;;;;;;;21.03;45.75;99500.31;5134541;28;19920;-45
2024/01/05 08:24:59;;;;;;;;;;;;;;;21.03;45.22;99496.81;5131147;28;19926;-46
2024/01/05 08:27:24;;;;;;;;;;;;;;;21.02;45.25;99495.13;5131604;28;19939;-47
2024/01/05 08:29:49;;;;;;;;;;;;;;;21.02;44.77;99498.66;5114347;28;19918;-51
2024/01/05 08:32:14;;;;;;;;;;;;;;;21.02;44.64;99500.53;5132563;28;19955;-49
2024/01/05 08:34:39;;;;;;;;;;;;;;;21.00;44.69;99499.94;5132150;28;19916;-46
2024/01/05 08:37:05;;;;;;;;;;;;;;;20.99;44.23;99493.69;5132644;28;19912;-48
2024/01/05 08:39:30;;;;;;;;;;;;;;;20.99;44.17;99503.69;5136839;28;19937;-46
2024/01/05 08:41:55;;;;;;;;;;;;;;;20.99;44.22;99506.38;5132678;28;20282;-46
2024/01/05 08:44:21;;;;;;;;;;;;;;;20.97;44.15;99499.31;5129134;28;19915;-45
2024/01/05 08:46:46;;;;;;;;;;;;;;;20.98;43.72;99502.81;5136744;27;19911;-46
2024/01/05 08:49:12;;;;;;;;;;;;;;;20.99;43.97;99495.56;5138512;27;19954;-46
2024/01/05 08:51:43;;;;;;;;;;;;;;;20.97;43.59;99496.59;5135563;27;20138;-47
2024/01/05 08:54:09;;;;;;;;;;;;;;;20.97;43.71;99503.88;5123751;27;19939;-48
2024/01/05 08:56:34;;;;;;;;;;;;;;;20.96;43.81;99497.66;5136454;27;19939;-46
2024/01/05 08:59:00;;;;;;;;;;;;;;;20.97;43.79;99503.88;5139760;27;19920;-47
2024/01/05 09:01:25;;;;;;;;;;;;;;;20.97;43.69;99502.00;5129792;27;19958;-46
2024/01/05 09:03:50;;;;;;;;;;;;;;;20.97;43.38;99498.47;5134131;27;19912;-46
2024/01/05 09:06:16;;;;;;;;;;;;;;;20.98;43.43;99508.22;5136242;27;19926;-49
2024/01/05 09:08:41;;;;;;;;;;;;;;;20.95;43.61;99506.81;5137137;27;19919;-48
2024/01/05 09:11:06;;;;;;;;;;;;;;;20.94;43.24;99502.47;5136536;27;20070;-47
2024/01/05 09:13:31;;;;;;;;;;;;;;;20.94;43.20;99509.72;5140974;27;19918;-48
2024/01/05 09:15:56;;;;;;;;;;;;;;;20.93;43.17;99500.78;5135634;27;19916;-48
2024/01/05 09:18:22;;;;;;;;;;;;;;;20.92;43.05;99499.13;5133830;27;19918;-45
2024/01/05 09:20:47;;;;;;;;;;;;;;;20.92;43.07;99509.94;5135205;27;19920;-47
2024/01/05 09:23:13;;;;;;;;;;;;;;;20.91;43.14;99515.56;5141187;27;19916;-47
2024/01/05 09:25:38;;;;;;;;;;;;;;;20.91;43.36;99513.69;5133749;27;19916;-46
2024/01/05 09:28:06;;;;;;;;;;;;;;;20.89;43.38;99518.47;5136798;27;20635;-45
2024/01/05 09:30:31;;;;;;;;;;;;;;;20.89;43.03;99517.63;5141175;27;19912;-47
2024/01/05 09:32:57;;;;;;;;;;;;;;;20.89;43.27;99515.75;5138770;27;19911;-49
2024/01/05 09:35:22;;;;;;;;;;;;;;;20.88;42.97;99524.09;5135119;27;19911;-46
2024/01/05 09:37:47;;;;;;;;;;;;;;;20.88;43.13;99527.63;5135414;27;19912;-47
2024/01/05 09:40:12;;;;;;;;;;;;;;;20.87;43.05;99527.84;5134633;27;19926;-46
2024/01/05 09:42:39;;;;;;;;;;;;;;;20.87;43.11;99525.13;5133775;27;19916;-45
2024/01/05 09:45:05;;;;;;;;;;;;;;;20.86;43.16;99532.41;5129848;27;20026;-48
2024/01/05 09:47:30;;;;;;;;;;;;;;;20.85;42.81;99532.63;5136527;27;19979;-45
2024/01/05 09:49:56;;;;;;;;;;;;;;;20.84;42.67;99536.38;5135623;27;19919;-47
2024/01/05 09:52:21;;;;;;;;;;;;;;;20.82;42.73;99538.47;5126408;27;19918;-46
2024/01/05 09:54:46;;;;;;;;;;;;;;;20.81;42.98;99534.91;5136749;27;19999;-46
2024/01/05 09:57:15;;;;;;;;;;;;;;;20.80;42.70;99527.03;5136234;27;19923;-45
2024/01/05 09:59:40;;;;;;;;;;;;;;;20.80;42.79;99535.97;5133463;27;19963;-45
2024/01/05 10:02:06;;;;;;;;;;;;;;;20.80;42.68;99527.84;5126406;27;19939;-44
2024/01/05 10:04:31;;;;;;;;;;;;;;;20.79;42.65;99534.31;5138497;27;19911;-47
2024/01/05 10:07:00;;;;;;;;;;;;;;;20.78;42.88;99529.13;5108618;27;19961;-45
2024/01/05 10:09:27;;;;;;;;;;;;;;;20.77;42.59;99530.16;5134868;27;19919;-44
2024/01/05 10:11:52;;;;;;;;;;;;;;;20.76;42.48;99528.50;5133982;27;19912;-45
2024/01/05 10:14:18;;;;;;;;;;;;;;;20.75;42.45;99530.38;5136506;27;19912;-45
2024/01/05 10:16:43;;;;;;;;;;;;;;;20.74;42.58;99534.13;5129332;27;19942;-45
2024/01/05 10:19:16;;;;;;;;;;;;;;;20.69;42.97;99518.56;5126521;27;19916;-44
2024/01/05 10:21:42;;;;;;;;;;;;;;;20.70;43.20;99533.72;5138932;27;19915;-44
2024/01/05 10:24:33;;;;;;;;;;;;;;;20.69;43.30;99532.06;5134051;27;19922;-54
2024/01/05 10:27:02;;;;;;;;;;;;;;;20.71;43.24;99518.34;5129554;27;19911;-57
2024/01/05 10:29:27;;;;;;;;;;;;;;;20.71;43.74;99531.84;5139915;27;19915;-52
2024/01/05 10:31:52;;;;;;;;;;;;;;;20.69;43.82;99525.84;5140493;27;19912;-49
2024/01/05 10:34:17;;;;;;;;;;;;;;;20.71;44.24;99529.16;5136042;27;19933;-52
2024/01/05 10:36:43;;;;;;;;;;;;;;;20.74;43.78;99523.31;5129167;27;19912;-51
2024/01/05 10:39:09;;;;;;;;;;;;;;;20.80;44.19;99532.44;5137277;27;19926;-54
2024/01/05 10:41:34;;;;;;;;;;;;;;;20.86;43.98;99531.59;5119340;28;19955;-50
2024/01/05 10:43:59;;;;;;;;;;;;;;;20.91;43.71;99529.91;5126804;27;19915;-54
2024/01/05 10:46:24;;;;;;;;;;;;;;;20.95;43.89;99528.41;5138640;27;19919;-52
2024/01/05 10:48:50;;;;;;;;;;;;;;;21.02;43.63;99525.66;5121185;28;19930;-57
2024/01/05 10:51:15;;;;;;;;;;;;;;;21.06;43.33;99534.19;5121009;27;20188;-54
2024/01/05 10:53:42;;;;;;;;;;;;;;;21.14;43.14;99532.06;5131387;27;19915;-57
2024/01/05 10:56:07;;;;;;;;;;;;;;;21.14;42.97;99532.06;5141577;27;19960;-54
2024/01/05 10:58:32;;;;;;;;;;;;;;;21.15;42.87;99527.47;5126147;27;19927;-56
2024/01/05 11:01:00;;;;;;;;;;;;;;;21.16;42.76;99526.44;5139441;27;19911;-47
2024/01/05 11:03:26;;;;;;;;;;;;;;;21.21;42.49;99521.22;5139111;27;19915;-49
2024/01/05 11:05:51;;;;;;;;;;;;;;;21.20;42.55;99519.56;5136637;27;19915;-45
2024/01/05 11:08:22;;;;;;;;;;;;;;;21.22;42.24;99517.47;5129879;27;19923;-46
2024/01/05 11:10:57;;;;;;;;;;;;;;;21.22;42.35;99512.06;5140428;27;19911;-47
2024/01/05 11:13:40;;;;;;;;;;;;;;;21.21;42.40;99507.69;5129088;27;19933;-49
2024/01/05 11:16:41;;;;;;;;;;;;;;;21.21;42.47;99513.09;5138952;27;19922;-48
2024/01/05 11:19:11;;;;;;;;;;;;;;;21.20;42.43;99519.56;5102389;28;19926;-50
2024/01/05 11:21:50;;;;;;;;;;;;;;;21.20;42.37;99514.16;5103558;28;19999;-49
2024/01/05 11:24:15;;;;;;;;;;;;;;;21.20;42.22;99512.28;5106421;28;19916;-48
2024/01/05 11:26:43;;;;;;;;;;;;;;;21.20;42.42;99506.03;5088274;28;20050;-47
2024/01/05 11:29:15;;;;;;;;;;;;;;;21.21;42.35;99510.41;5104455;28;19912;-49
2024/01/05 11:31:46;;;;;;;;;;;;;;;21.20;42.03;99506.03;5102737;28;20341;-44
2024/01/05 11:34:34;;;;;;;;;;;;;;;21.22;42.22;99510.16;5101272;28;19912;-48
2024/01/05 11:37:00;;;;;;;;;;;;;;;21.22;41.93;99506.66;5101086;28;19913;-48
2024/01/05 11:39:37;;;;;;;;;;;;;;;21.23;41.89;99505.59;5104580;28;19946;-49
2024/01/05 11:42:03;;;;;;;;;;;;;;;21.23;41.86;99502.88;5106068;28;19916;-48
2024/01/05 11:44:32;;;;;;;;;;;;;;;21.23;41.79;99501.00;5104604;28;19920;-48
2024/01/05 11:46:59;;;;;;;;;;;;;;;21.25;41.91;99503.50;5100384;28;19912;-46
2024/01/05 11:49:37;;;;;;;;;;;;;;;21.25;42.02;99497.28;5108777;28;20407;-48
2024/01/05 11:52:03;;;;;;;;;;;;;;;21.26;41.99;99499.75;5102752;28;20370;-50
2024/01/05 11:54:29;;;;;;;;;;;;;;;21.28;41.74;99489.56;5136112;28;19922;-46
2024/01/05 11:56:54;;;;;;;;;;;;;;;21.31;41.51;99499.09;5139459;28;19911;-46
2024/01/05 11:59:19;;;;;;;;;;;;;;;21.30;41.75;99486.63;5125176;28;19958;-47
2024/01/05 12:01:50;;;;;;;;;;;;;;;21.31;41.86;99483.69;5134459;28;19937;-50
2024/01/05 12:04:15;;;;;;;;;;;;;;;21.34;41.66;99490.59;5136347;28;19916;-50
2024/01/05 12:06:43;;;;;;;;;;;;;;;21.35;41.61;99487.66;5136451;28;19919;-49
2024/01/05 12:09:08;;;;;;;;;;;;;;;21.37;41.67;99482.88;5137062;28;19911;-46
2024/01/05 12:11:34;;;;;;;;;;;;;;;21.39;41.61;99479.94;5140073;28;19983;-49
2024/01/05 12:13:59;;;;;;;;;;;;;;;21.41;41.54;99483.28;5139585;28;19955;-48
2024/01/05 12:16:24;;;;;;;;;;;;;;;21.42;41.46;99490.31;5139120;28;20002;-46
2024/01/05 12:18:51;;;;;;;;;;;;;;;21.43;41.16;99473.06;5137253;28;19954;-45
2024/01/05 12:21:21;;;;;;;;;;;;;;;21.44;40.98;99472.81;5138097;27;19933;-47
2024/01/05 12:23:54;;;;;;;;;;;;;;;21.47;41.21;99471.56;5128291;27;20009;-48
2024/01/05 12:26:19;;;;;;;;;;;;;;;21.50;41.03;99467.59;5141509;27;19912;-45
2024/01/05 12:28:44;;;;;;;;;;;;;;;21.53;41.01;99465.25;5139104;27;19925;-45
2024/01/05 12:31:10;;;;;;;;;;;;;;;21.55;40.95;99465.06;5130299;27;19911;-46
2024/01/05 12:33:36;;;;;;;;;;;;;;;21.57;40.88;99466.47;5135826;27;19950;-48
2024/01/05 12:36:01;;;;;;;;;;;;;;;21.59;40.66;99461.69;5132212;27;19923;-47
2024/01/05 12:38:26;;;;;;;;;;;;;;;21.63;40.63;99464.78;5139461;27;20495;-49
2024/01/05 12:40:52;;;;;;;;;;;;;;;21.67;40.51;99463.28;5138876;27;19912;-46